sensor_id;sensor_type;location;lat;lon;timestamp;P1;durP1;ratioP1;P2;durP2;ratioP2
16642;SDS011;8435;52.184;5.406;2023-04-01T00:01:36;5.67;;;5.17;;
16642;SDS011;8435;52.184;5.406;2023-04-01T00:04:06;6.50;;;5.73;;
16642;SDS011;8435;52.184;5.406;2023-04-01T00:06:33;6.20;;;5.37;;
16642;SDS011;8435;52.184;5.406;2023-04-01T00:08:59;6.53;;;5.37;;
16642;SDS011;8435;52.184;5.406;2023-04-01T00:11:28;7.30;;;5.47;;
16642;SDS011;8435;52.184;5.406;2023-04-01T00:13:54;7.43;;;6.30;;
16642;SDS011;8435;52.184;5.406;2023-04-01T00:16:21;9.80;;;6.13;;
16642;SDS011;8435;52.184;5.406;2023-04-01T00:18:48;9.77;;;6.03;;
16642;SDS011;8435;52.184;5.406;2023-04-01T00:21:16;12.53;;;6.63;;
16642;SDS011;8435;52.184;5.406;2023-04-01T00:23:43;8.10;;;6.37;;
16642;SDS011;8435;52.184;5.406;2023-04-01T00:26:13;7.20;;;6.50;;
16642;SDS011;8435;52.184;5.406;2023-04-01T00:28:45;10.20;;;6.50;;
16642;SDS011;8435;52.184;5.406;2023-04-01T00:31:12;8.17;;;5.70;;
16642;SDS011;8435;52.184;5.406;2023-04-01T00:33:40;8.00;;;5.37;;
16642;SDS011;8435;52.184;5.406;2023-04-01T00:36:08;8.03;;;4.93;;
16642;SDS011;8435;52.184;5.406;2023-04-01T00:38:36;8.27;;;5.43;;
16642;SDS011;8435;52.184;5.406;2023-04-01T00:41:04;5.90;;;5.13;;
16642;SDS011;8435;52.184;5.406;2023-04-01T00:43:31;8.60;;;5.00;;
16642;SDS011;8435;52.184;5.406;2023-04-01T00:46:00;9.13;;;4.67;;
16642;SDS011;8435;52.184;5.406;2023-04-01T00:48:28;9.70;;;5.50;;
16642;SDS011;8435;52.184;5.406;2023-04-01T00:50:59;7.77;;;5.57;;
16642;SDS011;8435;52.184;5.406;2023-04-01T00:53:28;9.07;;;6.00;;
16642;SDS011;8435;52.184;5.406;2023-04-01T00:56:00;8.30;;;5.63;;
16642;SDS011;8435;52.184;5.406;2023-04-01T00:58:31;8.90;;;5.53;;
16642;SDS011;8435;52.184;5.406;2023-04-01T01:01:02;8.43;;;5.53;;
16642;SDS011;8435;52.184;5.406;2023-04-01T01:03:30;10.10;;;5.60;;
16642;SDS011;8435;52.184;5.406;2023-04-01T01:06:05;8.83;;;5.90;;
16642;SDS011;8435;52.184;5.406;2023-04-01T01:08:40;9.37;;;6.00;;
16642;SDS011;8435;52.184;5.406;2023-04-01T01:11:17;10.80;;;6.30;;
16642;SDS011;8435;52.184;5.406;2023-04-01T01:13:52;11.70;;;7.10;;
16642;SDS011;8435;52.184;5.406;2023-04-01T01:16:27;11.57;;;6.57;;
16642;SDS011;8435;52.184;5.406;2023-04-01T01:19:02;8.17;;;6.10;;
16642;SDS011;8435;52.184;5.406;2023-04-01T01:21:47;7.23;;;5.70;;
16642;SDS011;8435;52.184;5.406;2023-04-01T01:24:46;7.77;;;6.20;;
16642;SDS011;8435;52.184;5.406;2023-04-01T01:27:24;8.73;;;6.30;;
16642;SDS011;8435;52.184;5.406;2023-04-01T01:29:55;6.57;;;5.50;;
16642;SDS011;8435;52.184;5.406;2023-04-01T01:32:52;7.70;;;4.77;;
16642;SDS011;8435;52.184;5.406;2023-04-01T01:35:30;6.77;;;4.63;;
16642;SDS011;8435;52.184;5.406;2023-04-01T01:38:01;4.93;;;3.83;;
16642;SDS011;8435;52.184;5.406;2023-04-01T01:40:31;6.10;;;4.07;;
16642;SDS011;8435;52.184;5.406;2023-04-01T01:43:03;3.63;;;3.13;;
16642;SDS011;8435;52.184;5.406;2023-04-01T01:45:33;4.87;;;3.70;;
16642;SDS011;8435;52.184;5.406;2023-04-01T01:48:06;4.53;;;3.80;;
16642;SDS011;8435;52.184;5.406;2023-04-01T01:50:37;5.10;;;3.20;;
16642;SDS011;8435;52.184;5.406;2023-04-01T01:53:09;5.20;;;3.60;;
16642;SDS011;8435;52.184;5.406;2023-04-01T01:55:38;4.87;;;3.20;;
16642;SDS011;8435;52.184;5.406;2023-04-01T01:58:09;4.07;;;3.37;;
16642;SDS011;8435;52.184;5.406;2023-04-01T02:00:37;4.53;;;3.33;;
16642;SDS011;8435;52.184;5.406;2023-04-01T02:03:05;3.63;;;2.80;;
16642;SDS011;8435;52.184;5.406;2023-04-01T02:05:38;3.83;;;2.93;;
16642;SDS011;8435;52.184;5.406;2023-04-01T02:08:06;3.60;;;2.60;;
16642;SDS011;8435;52.184;5.406;2023-04-01T02:10:37;3.80;;;2.50;;
16642;SDS011;8435;52.184;5.406;2023-04-01T02:13:09;3.37;;;2.30;;
16642;SDS011;8435;52.184;5.406;2023-04-01T02:15:42;2.30;;;2.10;;
16642;SDS011;8435;52.184;5.406;2023-04-01T02:18:13;3.10;;;2.37;;
16642;SDS011;8435;52.184;5.406;2023-04-01T02:20:43;1.90;;;1.80;;
16642;SDS011;8435;52.184;5.406;2023-04-01T02:23:14;5.43;;;2.63;;
16642;SDS011;8435;52.184;5.406;2023-04-01T02:25:42;1.70;;;1.60;;
16642;SDS011;8435;52.184;5.406;2023-04-01T02:28:13;2.30;;;2.10;;
16642;SDS011;8435;52.184;5.406;2023-04-01T02:30:45;1.93;;;1.70;;
16642;SDS011;8435;52.184;5.406;2023-04-01T02:33:14;2.20;;;1.80;;
16642;SDS011;8435;52.184;5.406;2023-04-01T02:35:44;2.87;;;2.30;;
16642;SDS011;8435;52.184;5.406;2023-04-01T02:38:11;2.60;;;1.97;;
16642;SDS011;8435;52.184;5.406;2023-04-01T02:40:41;3.23;;;2.40;;
16642;SDS011;8435;52.184;5.406;2023-04-01T02:43:09;2.30;;;2.10;;
16642;SDS011;8435;52.184;5.406;2023-04-01T02:45:36;2.50;;;2.30;;
16642;SDS011;8435;52.184;5.406;2023-04-01T02:48:03;2.57;;;2.30;;
16642;SDS011;8435;52.184;5.406;2023-04-01T02:50:31;2.87;;;2.33;;
16642;SDS011;8435;52.184;5.406;2023-04-01T02:52:59;2.73;;;2.37;;
16642;SDS011;8435;52.184;5.406;2023-04-01T02:55:25;2.97;;;2.67;;
16642;SDS011;8435;52.184;5.406;2023-04-01T02:57:52;2.87;;;2.67;;
16642;SDS011;8435;52.184;5.406;2023-04-01T03:00:19;3.40;;;3.20;;
16642;SDS011;8435;52.184;5.406;2023-04-01T03:02:50;2.50;;;2.30;;
16642;SDS011;8435;52.184;5.406;2023-04-01T03:05:16;2.90;;;2.70;;
16642;SDS011;8435;52.184;5.406;2023-04-01T03:07:43;3.83;;;3.40;;
16642;SDS011;8435;52.184;5.406;2023-04-01T03:10:12;3.57;;;3.13;;
16642;SDS011;8435;52.184;5.406;2023-04-01T03:12:43;2.43;;;2.23;;
16642;SDS011;8435;52.184;5.406;2023-04-01T03:15:10;2.63;;;2.33;;
16642;SDS011;8435;52.184;5.406;2023-04-01T03:17:38;2.10;;;1.90;;
16642;SDS011;8435;52.184;5.406;2023-04-01T03:20:06;2.37;;;2.23;;
16642;SDS011;8435;52.184;5.406;2023-04-01T03:22:35;2.73;;;2.53;;
16642;SDS011;8435;52.184;5.406;2023-04-01T03:25:03;2.93;;;2.73;;
16642;SDS011;8435;52.184;5.406;2023-04-01T03:27:34;3.60;;;3.30;;
16642;SDS011;8435;52.184;5.406;2023-04-01T03:30:01;4.23;;;3.83;;
16642;SDS011;8435;52.184;5.406;2023-04-01T03:32:31;3.90;;;3.60;;
16642;SDS011;8435;52.184;5.406;2023-04-01T03:34:58;5.07;;;4.57;;
16642;SDS011;8435;52.184;5.406;2023-04-01T03:37:28;5.43;;;4.93;;
16642;SDS011;8435;52.184;5.406;2023-04-01T03:39:55;5.77;;;5.27;;
16642;SDS011;8435;52.184;5.406;2023-04-01T03:42:21;6.30;;;5.70;;
16642;SDS011;8435;52.184;5.406;2023-04-01T03:44:52;4.83;;;4.43;;
16642;SDS011;8435;52.184;5.406;2023-04-01T03:47:19;5.57;;;5.07;;
16642;SDS011;8435;52.184;5.406;2023-04-01T03:49:45;6.87;;;6.20;;
16642;SDS011;8435;52.184;5.406;2023-04-01T03:52:12;8.07;;;6.80;;
16642;SDS011;8435;52.184;5.406;2023-04-01T03:54:39;8.30;;;7.60;;
16642;SDS011;8435;52.184;5.406;2023-04-01T03:57:06;8.73;;;7.87;;
16642;SDS011;8435;52.184;5.406;2023-04-01T03:59:33;9.37;;;8.47;;
16642;SDS011;8435;52.184;5.406;2023-04-01T04:02:01;9.50;;;8.53;;
16642;SDS011;8435;52.184;5.406;2023-04-01T04:04:28;10.43;;;9.33;;
16642;SDS011;8435;52.184;5.406;2023-04-01T04:06:56;9.87;;;8.83;;
16642;SDS011;8435;52.184;5.406;2023-04-01T04:09:22;11.77;;;9.97;;
16642;SDS011;8435;52.184;5.406;2023-04-01T04:11:49;10.53;;;9.27;;
16642;SDS011;8435;52.184;5.406;2023-04-01T04:14:20;13.17;;;10.17;;
16642;SDS011;8435;52.184;5.406;2023-04-01T04:16:46;9.90;;;8.87;;
16642;SDS011;8435;52.184;5.406;2023-04-01T04:19:14;11.23;;;8.93;;
16642;SDS011;8435;52.184;5.406;2023-04-01T04:21:41;10.03;;;8.60;;
16642;SDS011;8435;52.184;5.406;2023-04-01T04:24:08;10.53;;;8.67;;
16642;SDS011;8435;52.184;5.406;2023-04-01T04:26:35;10.73;;;9.03;;
16642;SDS011;8435;52.184;5.406;2023-04-01T04:29:02;9.90;;;8.70;;
16642;SDS011;8435;52.184;5.406;2023-04-01T04:31:29;10.40;;;9.23;;
16642;SDS011;8435;52.184;5.406;2023-04-01T04:33:56;8.97;;;8.07;;
16642;SDS011;8435;52.184;5.406;2023-04-01T04:36:26;9.63;;;8.63;;
16642;SDS011;8435;52.184;5.406;2023-04-01T04:38:53;9.47;;;8.47;;
16642;SDS011;8435;52.184;5.406;2023-04-01T04:41:20;7.63;;;6.93;;
16642;SDS011;8435;52.184;5.406;2023-04-01T04:43:51;7.37;;;6.57;;
16642;SDS011;8435;52.184;5.406;2023-04-01T04:46:19;6.27;;;5.67;;
16642;SDS011;8435;52.184;5.406;2023-04-01T04:48:47;6.93;;;6.23;;
16642;SDS011;8435;52.184;5.406;2023-04-01T04:51:14;6.47;;;5.80;;
16642;SDS011;8435;52.184;5.406;2023-04-01T04:53:43;5.37;;;4.87;;
16642;SDS011;8435;52.184;5.406;2023-04-01T04:56:10;5.87;;;5.27;;
16642;SDS011;8435;52.184;5.406;2023-04-01T04:58:37;5.43;;;4.77;;
16642;SDS011;8435;52.184;5.406;2023-04-01T05:01:06;5.00;;;4.50;;
16642;SDS011;8435;52.184;5.406;2023-04-01T05:03:34;5.17;;;4.70;;
16642;SDS011;8435;52.184;5.406;2023-04-01T05:06:00;6.00;;;5.10;;
16642;SDS011;8435;52.184;5.406;2023-04-01T05:08:31;4.60;;;4.20;;
16642;SDS011;8435;52.184;5.406;2023-04-01T05:11:00;5.20;;;4.70;;
16642;SDS011;8435;52.184;5.406;2023-04-01T05:13:27;5.70;;;5.20;;
16642;SDS011;8435;52.184;5.406;2023-04-01T05:15:54;5.77;;;5.27;;
16642;SDS011;8435;52.184;5.406;2023-04-01T05:18:21;6.27;;;5.67;;
16642;SDS011;8435;52.184;5.406;2023-04-01T05:20:48;6.37;;;5.80;;
16642;SDS011;8435;52.184;5.406;2023-04-01T05:23:16;6.13;;;5.60;;
16642;SDS011;8435;52.184;5.406;2023-04-01T05:25:43;6.00;;;5.40;;
16642;SDS011;8435;52.184;5.406;2023-04-01T05:28:12;6.20;;;5.70;;
16642;SDS011;8435;52.184;5.406;2023-04-01T05:30:42;6.23;;;5.67;;
16642;SDS011;8435;52.184;5.406;2023-04-01T05:33:12;5.53;;;5.13;;
16642;SDS011;8435;52.184;5.406;2023-04-01T05:35:41;6.00;;;5.50;;
16642;SDS011;8435;52.184;5.406;2023-04-01T05:38:08;5.30;;;4.90;;
16642;SDS011;8435;52.184;5.406;2023-04-01T05:40:35;5.13;;;4.70;;
16642;SDS011;8435;52.184;5.406;2023-04-01T05:43:05;5.37;;;4.87;;
16642;SDS011;8435;52.184;5.406;2023-04-01T05:45:33;5.20;;;4.70;;
16642;SDS011;8435;52.184;5.406;2023-04-01T05:48:00;4.40;;;4.07;;
16642;SDS011;8435;52.184;5.406;2023-04-01T05:50:27;4.67;;;4.27;;
16642;SDS011;8435;52.184;5.406;2023-04-01T05:52:54;4.43;;;4.13;;
16642;SDS011;8435;52.184;5.406;2023-04-01T05:55:23;3.87;;;3.57;;
16642;SDS011;8435;52.184;5.406;2023-04-01T05:57:53;3.83;;;3.53;;
16642;SDS011;8435;52.184;5.406;2023-04-01T06:00:20;4.47;;;4.07;;
16642;SDS011;8435;52.184;5.406;2023-04-01T06:02:48;5.00;;;4.43;;
16642;SDS011;8435;52.184;5.406;2023-04-01T06:05:19;5.20;;;4.70;;
16642;SDS011;8435;52.184;5.406;2023-04-01T06:07:47;5.43;;;4.93;;
16642;SDS011;8435;52.184;5.406;2023-04-01T06:10:15;5.63;;;5.13;;
16642;SDS011;8435;52.184;5.406;2023-04-01T06:12:46;5.87;;;5.27;;
16642;SDS011;8435;52.184;5.406;2023-04-01T06:15:23;5.87;;;5.27;;
16642;SDS011;8435;52.184;5.406;2023-04-01T06:18:01;5.73;;;5.23;;
16642;SDS011;8435;52.184;5.406;2023-04-01T06:20:41;6.00;;;5.43;;
16642;SDS011;8435;52.184;5.406;2023-04-01T06:23:17;5.03;;;4.63;;
16642;SDS011;8435;52.184;5.406;2023-04-01T06:25:59;7.03;;;5.23;;
16642;SDS011;8435;52.184;5.406;2023-04-01T06:31:40;5.20;;;4.70;;
16642;SDS011;8435;52.184;5.406;2023-04-01T06:34:29;4.63;;;4.23;;
16642;SDS011;8435;52.184;5.406;2023-04-01T06:37:14;4.00;;;3.60;;
16642;SDS011;8435;52.184;5.406;2023-04-01T06:39:51;4.50;;;4.10;;
16642;SDS011;8435;52.184;5.406;2023-04-01T06:42:38;4.30;;;3.57;;
16642;SDS011;8435;52.184;5.406;2023-04-01T06:45:20;2.70;;;2.50;;
16642;SDS011;8435;52.184;5.406;2023-04-01T06:48:05;2.70;;;2.50;;
16642;SDS011;8435;52.184;5.406;2023-04-01T06:50:44;2.30;;;2.10;;
16642;SDS011;8435;52.184;5.406;2023-04-01T06:53:19;1.47;;;1.37;;
16642;SDS011;8435;52.184;5.406;2023-04-01T06:55:51;1.63;;;1.53;;
16642;SDS011;8435;52.184;5.406;2023-04-01T06:58:24;1.70;;;1.60;;
16642;SDS011;8435;52.184;5.406;2023-04-01T07:00:54;1.90;;;1.80;;
16642;SDS011;8435;52.184;5.406;2023-04-01T07:03:26;2.20;;;2.00;;
16642;SDS011;8435;52.184;5.406;2023-04-01T07:06:03;2.00;;;1.90;;
16642;SDS011;8435;52.184;5.406;2023-04-01T07:08:31;2.50;;;2.30;;
16642;SDS011;8435;52.184;5.406;2023-04-01T07:11:05;2.40;;;2.20;;
16642;SDS011;8435;52.184;5.406;2023-04-01T07:13:36;3.07;;;2.87;;
16642;SDS011;8435;52.184;5.406;2023-04-01T07:16:11;2.97;;;2.77;;
16642;SDS011;8435;52.184;5.406;2023-04-01T07:18:42;3.50;;;3.20;;
16642;SDS011;8435;52.184;5.406;2023-04-01T07:21:19;3.63;;;3.33;;
16642;SDS011;8435;52.184;5.406;2023-04-01T07:23:52;4.03;;;3.70;;
16642;SDS011;8435;52.184;5.406;2023-04-01T07:26:24;4.70;;;4.20;;
16642;SDS011;8435;52.184;5.406;2023-04-01T07:28:52;5.10;;;4.70;;
16642;SDS011;8435;52.184;5.406;2023-04-01T07:31:25;5.53;;;4.47;;
16642;SDS011;8435;52.184;5.406;2023-04-01T07:34:08;5.60;;;5.10;;
16642;SDS011;8435;52.184;5.406;2023-04-01T07:36:46;5.93;;;5.43;;
16642;SDS011;8435;52.184;5.406;2023-04-01T07:39:21;5.53;;;5.03;;
16642;SDS011;8435;52.184;5.406;2023-04-01T07:41:57;5.87;;;5.37;;
16642;SDS011;8435;52.184;5.406;2023-04-01T07:44:28;5.87;;;5.27;;
16642;SDS011;8435;52.184;5.406;2023-04-01T07:47:10;5.90;;;5.40;;
16642;SDS011;8435;52.184;5.406;2023-04-01T07:49:49;5.77;;;5.23;;
16642;SDS011;8435;52.184;5.406;2023-04-01T07:52:28;6.63;;;6.00;;
16642;SDS011;8435;52.184;5.406;2023-04-01T07:55:03;6.00;;;5.40;;
16642;SDS011;8435;52.184;5.406;2023-04-01T07:57:47;6.67;;;6.00;;
16642;SDS011;8435;52.184;5.406;2023-04-01T08:00:18;5.90;;;5.40;;
16642;SDS011;8435;52.184;5.406;2023-04-01T08:02:51;6.37;;;5.77;;
16642;SDS011;8435;52.184;5.406;2023-04-01T08:05:33;6.37;;;5.77;;
16642;SDS011;8435;52.184;5.406;2023-04-01T08:08:09;6.13;;;5.63;;
16642;SDS011;8435;52.184;5.406;2023-04-01T08:10:46;6.43;;;5.93;;
16642;SDS011;8435;52.184;5.406;2023-04-01T08:13:17;6.73;;;6.13;;
16642;SDS011;8435;52.184;5.406;2023-04-01T08:15:53;5.90;;;5.30;;
16642;SDS011;8435;52.184;5.406;2023-04-01T08:18:32;7.63;;;6.07;;
16642;SDS011;8435;52.184;5.406;2023-04-01T08:21:09;5.90;;;5.37;;
16642;SDS011;8435;52.184;5.406;2023-04-01T08:23:45;6.30;;;5.70;;
16642;SDS011;8435;52.184;5.406;2023-04-01T08:26:15;7.60;;;5.87;;
16642;SDS011;8435;52.184;5.406;2023-04-01T08:28:49;6.30;;;5.70;;
16642;SDS011;8435;52.184;5.406;2023-04-01T08:31:25;6.80;;;6.20;;
16642;SDS011;8435;52.184;5.406;2023-04-01T08:33:57;6.83;;;6.13;;
16642;SDS011;8435;52.184;5.406;2023-04-01T08:36:28;7.07;;;6.37;;
16642;SDS011;8435;52.184;5.406;2023-04-01T08:39:02;7.13;;;6.43;;
16642;SDS011;8435;52.184;5.406;2023-04-01T08:41:40;6.77;;;6.07;;
16642;SDS011;8435;52.184;5.406;2023-04-01T08:44:50;6.63;;;5.93;;
16642;SDS011;8435;52.184;5.406;2023-04-01T08:47:40;6.97;;;6.37;;
16642;SDS011;8435;52.184;5.406;2023-04-01T08:53:16;7.53;;;6.83;;
16642;SDS011;8435;52.184;5.406;2023-04-01T08:55:56;7.03;;;6.40;;
16642;SDS011;8435;52.184;5.406;2023-04-01T08:58:37;8.67;;;7.33;;
16642;SDS011;8435;52.184;5.406;2023-04-01T09:01:38;7.43;;;6.47;;
16642;SDS011;8435;52.184;5.406;2023-04-01T09:04:25;7.20;;;6.50;;
16642;SDS011;8435;52.184;5.406;2023-04-01T09:07:03;7.03;;;6.33;;
16642;SDS011;8435;52.184;5.406;2023-04-01T09:09:50;7.13;;;6.40;;
16642;SDS011;8435;52.184;5.406;2023-04-01T09:15:46;6.57;;;5.97;;
16642;SDS011;8435;52.184;5.406;2023-04-01T09:18:36;6.30;;;5.70;;
16642;SDS011;8435;52.184;5.406;2023-04-01T09:21:29;6.53;;;5.93;;
16642;SDS011;8435;52.184;5.406;2023-04-01T09:24:09;5.03;;;4.63;;
16642;SDS011;8435;52.184;5.406;2023-04-01T09:27:02;6.97;;;5.83;;
16642;SDS011;8435;52.184;5.406;2023-04-01T09:32:49;6.60;;;6.00;;
16642;SDS011;8435;52.184;5.406;2023-04-01T09:35:29;7.40;;;6.70;;
16642;SDS011;8435;52.184;5.406;2023-04-01T09:38:11;6.90;;;6.30;;
16642;SDS011;8435;52.184;5.406;2023-04-01T09:40:47;7.50;;;6.80;;
16642;SDS011;8435;52.184;5.406;2023-04-01T09:43:25;7.40;;;6.63;;
16642;SDS011;8435;52.184;5.406;2023-04-01T09:48:48;7.37;;;6.63;;
16642;SDS011;8435;52.184;5.406;2023-04-01T09:51:44;8.33;;;7.53;;
16642;SDS011;8435;52.184;5.406;2023-04-01T09:54:23;7.77;;;7.07;;
16642;SDS011;8435;52.184;5.406;2023-04-01T10:03:13;7.90;;;7.10;;
16642;SDS011;8435;52.184;5.406;2023-04-01T10:12:22;6.63;;;6.07;;
16642;SDS011;8435;52.184;5.406;2023-04-01T10:27:55;6.23;;;5.73;;
16642;SDS011;8435;52.184;5.406;2023-04-01T10:33:46;6.70;;;6.00;;
16642;SDS011;8435;52.184;5.406;2023-04-01T10:39:30;6.07;;;5.50;;
16642;SDS011;8435;52.184;5.406;2023-04-01T10:42:25;6.47;;;5.70;;
16642;SDS011;8435;52.184;5.406;2023-04-01T10:45:27;6.40;;;5.63;;
16642;SDS011;8435;52.184;5.406;2023-04-01T10:48:18;6.47;;;5.87;;
16642;SDS011;8435;52.184;5.406;2023-04-01T10:51:10;5.67;;;5.17;;
16642;SDS011;8435;52.184;5.406;2023-04-01T10:54:03;4.50;;;4.10;;
16642;SDS011;8435;52.184;5.406;2023-04-01T10:56:57;3.60;;;3.30;;
16642;SDS011;8435;52.184;5.406;2023-04-01T10:59:45;2.83;;;2.63;;
16642;SDS011;8435;52.184;5.406;2023-04-01T11:02:45;2.60;;;2.40;;
16642;SDS011;8435;52.184;5.406;2023-04-01T11:08:34;2.40;;;2.20;;
16642;SDS011;8435;52.184;5.406;2023-04-01T11:17:51;1.70;;;1.60;;
16642;SDS011;8435;52.184;5.406;2023-04-01T11:26:33;1.80;;;1.23;;
16642;SDS011;8435;52.184;5.406;2023-04-01T11:29:29;1.00;;;1.00;;
16642;SDS011;8435;52.184;5.406;2023-04-01T11:32:11;0.90;;;0.90;;
16642;SDS011;8435;52.184;5.406;2023-04-01T11:34:55;3.07;;;1.40;;
16642;SDS011;8435;52.184;5.406;2023-04-01T11:37:31;2.00;;;1.70;;
16642;SDS011;8435;52.184;5.406;2023-04-01T11:40:07;1.67;;;1.57;;
16642;SDS011;8435;52.184;5.406;2023-04-01T11:42:46;1.70;;;1.50;;
16642;SDS011;8435;52.184;5.406;2023-04-01T11:45:25;1.70;;;1.60;;
16642;SDS011;8435;52.184;5.406;2023-04-01T11:48:08;2.00;;;1.90;;
16642;SDS011;8435;52.184;5.406;2023-04-01T11:51:07;1.80;;;1.70;;
16642;SDS011;8435;52.184;5.406;2023-04-01T11:53:47;3.07;;;2.87;;
16642;SDS011;8435;52.184;5.406;2023-04-01T11:56:37;3.70;;;3.47;;
16642;SDS011;8435;52.184;5.406;2023-04-01T12:02:16;4.70;;;4.30;;
16642;SDS011;8435;52.184;5.406;2023-04-01T12:04:54;4.87;;;4.47;;
16642;SDS011;8435;52.184;5.406;2023-04-01T12:07:43;5.77;;;5.33;;
16642;SDS011;8435;52.184;5.406;2023-04-01T12:10:20;5.90;;;5.40;;
16642;SDS011;8435;52.184;5.406;2023-04-01T12:12:54;6.20;;;5.70;;
16642;SDS011;8435;52.184;5.406;2023-04-01T12:15:32;7.23;;;6.63;;
16642;SDS011;8435;52.184;5.406;2023-04-01T12:18:12;7.53;;;6.83;;
16642;SDS011;8435;52.184;5.406;2023-04-01T12:20:47;7.97;;;7.27;;
16642;SDS011;8435;52.184;5.406;2023-04-01T12:23:26;7.53;;;6.83;;
16642;SDS011;8435;52.184;5.406;2023-04-01T12:26:22;7.50;;;6.90;;
16642;SDS011;8435;52.184;5.406;2023-04-01T12:29:07;8.60;;;7.70;;
16642;SDS011;8435;52.184;5.406;2023-04-01T12:31:45;8.80;;;7.90;;
16642;SDS011;8435;52.184;5.406;2023-04-01T12:34:34;7.57;;;6.87;;
16642;SDS011;8435;52.184;5.406;2023-04-01T12:37:12;9.30;;;8.40;;
16642;SDS011;8435;52.184;5.406;2023-04-01T12:39:57;8.90;;;8.00;;
16642;SDS011;8435;52.184;5.406;2023-04-01T12:42:48;9.30;;;8.40;;
16642;SDS011;8435;52.184;5.406;2023-04-01T12:45:29;9.03;;;8.13;;
16642;SDS011;8435;52.184;5.406;2023-04-01T12:51:22;9.43;;;8.20;;
16642;SDS011;8435;52.184;5.406;2023-04-01T12:54:13;9.20;;;8.17;;
16642;SDS011;8435;52.184;5.406;2023-04-01T12:56:53;9.30;;;8.33;;
16642;SDS011;8435;52.184;5.406;2023-04-01T12:59:53;8.40;;;7.60;;
16642;SDS011;8435;52.184;5.406;2023-04-01T13:02:38;6.73;;;6.00;;
16642;SDS011;8435;52.184;5.406;2023-04-01T13:05:20;5.77;;;5.27;;
16642;SDS011;8435;52.184;5.406;2023-04-01T13:08:08;6.30;;;5.80;;
16642;SDS011;8435;52.184;5.406;2023-04-01T13:13:43;6.83;;;6.23;;
16642;SDS011;8435;52.184;5.406;2023-04-01T13:16:20;6.43;;;5.83;;
16642;SDS011;8435;52.184;5.406;2023-04-01T13:18:54;5.40;;;4.90;;
16642;SDS011;8435;52.184;5.406;2023-04-01T13:21:31;5.97;;;5.43;;
16642;SDS011;8435;52.184;5.406;2023-04-01T13:24:11;6.00;;;5.50;;
16642;SDS011;8435;52.184;5.406;2023-04-01T13:26:53;6.10;;;5.57;;
16642;SDS011;8435;52.184;5.406;2023-04-01T13:29:31;5.70;;;5.03;;
16642;SDS011;8435;52.184;5.406;2023-04-01T13:34:54;4.17;;;3.77;;
16642;SDS011;8435;52.184;5.406;2023-04-01T13:37:34;4.10;;;3.70;;
16642;SDS011;8435;52.184;5.406;2023-04-01T13:40:19;4.50;;;4.10;;
16642;SDS011;8435;52.184;5.406;2023-04-01T13:43:05;4.90;;;4.47;;
16642;SDS011;8435;52.184;5.406;2023-04-01T13:45:42;4.53;;;4.13;;
16642;SDS011;8435;52.184;5.406;2023-04-01T13:48:28;5.87;;;4.40;;
16642;SDS011;8435;52.184;5.406;2023-04-01T13:54:14;5.83;;;4.60;;
16642;SDS011;8435;52.184;5.406;2023-04-01T13:57:02;4.30;;;3.90;;
16642;SDS011;8435;52.184;5.406;2023-04-01T13:59:53;4.20;;;3.80;;
16642;SDS011;8435;52.184;5.406;2023-04-01T14:02:39;3.93;;;3.63;;
16642;SDS011;8435;52.184;5.406;2023-04-01T14:08:20;5.10;;;4.60;;
16642;SDS011;8435;52.184;5.406;2023-04-01T14:11:04;5.20;;;4.17;;
16642;SDS011;8435;52.184;5.406;2023-04-01T14:13:46;5.40;;;4.20;;
16642;SDS011;8435;52.184;5.406;2023-04-01T14:16:36;6.20;;;5.60;;
16642;SDS011;8435;52.184;5.406;2023-04-01T14:19:24;6.13;;;4.43;;
16642;SDS011;8435;52.184;5.406;2023-04-01T14:22:03;4.50;;;4.20;;
16642;SDS011;8435;52.184;5.406;2023-04-01T14:24:40;5.03;;;4.20;;
16642;SDS011;8435;52.184;5.406;2023-04-01T14:27:19;4.67;;;4.30;;
16642;SDS011;8435;52.184;5.406;2023-04-01T14:30:02;4.20;;;3.90;;
16642;SDS011;8435;52.184;5.406;2023-04-01T14:32:42;4.50;;;4.10;;
16642;SDS011;8435;52.184;5.406;2023-04-01T14:35:23;4.60;;;4.23;;
16642;SDS011;8435;52.184;5.406;2023-04-01T14:38:02;4.17;;;3.80;;
16642;SDS011;8435;52.184;5.406;2023-04-01T14:40:46;4.10;;;3.77;;
16642;SDS011;8435;52.184;5.406;2023-04-01T14:43:23;4.20;;;3.90;;
16642;SDS011;8435;52.184;5.406;2023-04-01T14:46:04;4.30;;;3.90;;
16642;SDS011;8435;52.184;5.406;2023-04-01T14:48:50;4.03;;;3.73;;
16642;SDS011;8435;52.184;5.406;2023-04-01T14:51:21;3.80;;;3.50;;
16642;SDS011;8435;52.184;5.406;2023-04-01T14:53:58;3.73;;;3.43;;
16642;SDS011;8435;52.184;5.406;2023-04-01T14:56:38;4.13;;;3.83;;
16642;SDS011;8435;52.184;5.406;2023-04-01T14:59:25;4.23;;;3.83;;
16642;SDS011;8435;52.184;5.406;2023-04-01T15:01:57;4.03;;;3.63;;
16642;SDS011;8435;52.184;5.406;2023-04-01T15:04:37;4.40;;;3.93;;
16642;SDS011;8435;52.184;5.406;2023-04-01T15:07:29;3.70;;;3.40;;
16642;SDS011;8435;52.184;5.406;2023-04-01T15:10:24;4.03;;;3.47;;
16642;SDS011;8435;52.184;5.406;2023-04-01T15:13:17;3.70;;;3.40;;
16642;SDS011;8435;52.184;5.406;2023-04-01T15:15:59;3.70;;;3.40;;
16642;SDS011;8435;52.184;5.406;2023-04-01T15:18:41;3.97;;;3.67;;
16642;SDS011;8435;52.184;5.406;2023-04-01T15:21:18;3.93;;;3.63;;
16642;SDS011;8435;52.184;5.406;2023-04-01T15:23:57;3.70;;;3.40;;
16642;SDS011;8435;52.184;5.406;2023-04-01T15:26:39;3.87;;;3.57;;
16642;SDS011;8435;52.184;5.406;2023-04-01T15:29:25;4.17;;;3.43;;
16642;SDS011;8435;52.184;5.406;2023-04-01T15:32:08;3.40;;;3.10;;
16642;SDS011;8435;52.184;5.406;2023-04-01T15:34:45;3.67;;;3.47;;
16642;SDS011;8435;52.184;5.406;2023-04-01T15:37:26;3.20;;;3.00;;
16642;SDS011;8435;52.184;5.406;2023-04-01T15:40:02;2.90;;;2.70;;
16642;SDS011;8435;52.184;5.406;2023-04-01T15:42:48;3.27;;;3.07;;
16642;SDS011;8435;52.184;5.406;2023-04-01T15:45:30;4.50;;;3.00;;
16642;SDS011;8435;52.184;5.406;2023-04-01T15:48:19;2.90;;;2.70;;
16642;SDS011;8435;52.184;5.406;2023-04-01T15:51:01;2.97;;;2.60;;
16642;SDS011;8435;52.184;5.406;2023-04-01T15:53:36;2.50;;;2.40;;
16642;SDS011;8435;52.184;5.406;2023-04-01T15:56:26;2.23;;;2.13;;
16642;SDS011;8435;52.184;5.406;2023-04-01T15:59:07;2.37;;;2.27;;
16642;SDS011;8435;52.184;5.406;2023-04-01T16:01:46;2.37;;;2.20;;
16642;SDS011;8435;52.184;5.406;2023-04-01T16:07:20;2.30;;;2.20;;
16642;SDS011;8435;52.184;5.406;2023-04-01T16:10:06;2.57;;;2.40;;
16642;SDS011;8435;52.184;5.406;2023-04-01T16:12:47;2.47;;;2.27;;
16642;SDS011;8435;52.184;5.406;2023-04-01T16:15:25;2.40;;;2.20;;
16642;SDS011;8435;52.184;5.406;2023-04-01T16:18:06;2.13;;;2.03;;
16642;SDS011;8435;52.184;5.406;2023-04-01T16:20:51;2.30;;;2.10;;
16642;SDS011;8435;52.184;5.406;2023-04-01T16:23:26;2.83;;;2.63;;
16642;SDS011;8435;52.184;5.406;2023-04-01T16:26:02;2.73;;;2.53;;
16642;SDS011;8435;52.184;5.406;2023-04-01T16:28:36;3.27;;;2.97;;
16642;SDS011;8435;52.184;5.406;2023-04-01T16:31:12;2.57;;;2.40;;
16642;SDS011;8435;52.184;5.406;2023-04-01T16:33:51;2.43;;;2.33;;
16642;SDS011;8435;52.184;5.406;2023-04-01T16:36:24;2.67;;;2.57;;
16642;SDS011;8435;52.184;5.406;2023-04-01T16:39:06;3.17;;;2.97;;
16642;SDS011;8435;52.184;5.406;2023-04-01T16:41:42;3.67;;;3.37;;
16642;SDS011;8435;52.184;5.406;2023-04-01T16:44:17;4.00;;;3.70;;
16642;SDS011;8435;52.184;5.406;2023-04-01T16:46:46;4.20;;;3.90;;
16642;SDS011;8435;52.184;5.406;2023-04-01T16:49:23;3.83;;;3.53;;
16642;SDS011;8435;52.184;5.406;2023-04-01T16:51:54;3.73;;;3.43;;
16642;SDS011;8435;52.184;5.406;2023-04-01T16:54:35;3.50;;;3.30;;
16642;SDS011;8435;52.184;5.406;2023-04-01T16:57:12;3.70;;;3.40;;
16642;SDS011;8435;52.184;5.406;2023-04-01T16:59:47;3.50;;;3.20;;
16642;SDS011;8435;52.184;5.406;2023-04-01T17:02:21;3.17;;;2.97;;
16642;SDS011;8435;52.184;5.406;2023-04-01T17:04:53;4.03;;;3.73;;
16642;SDS011;8435;52.184;5.406;2023-04-01T17:07:27;4.00;;;3.70;;
16642;SDS011;8435;52.184;5.406;2023-04-01T17:10:16;3.67;;;3.47;;
16642;SDS011;8435;52.184;5.406;2023-04-01T17:13:06;3.60;;;3.30;;
16642;SDS011;8435;52.184;5.406;2023-04-01T17:16:04;3.80;;;3.50;;
16642;SDS011;8435;52.184;5.406;2023-04-01T17:18:50;3.13;;;2.93;;